Time;durP1;ratioP1;P1;durP2;ratioP2;P2;SDS_P1;SDS_P2;PMS_P1;PMS_P2;Temp;Humidity;BMP_temperature;BMP_pressure;BME280_temperature;BME280_humidity;BME280_pressure;Samples;Min_cycle;Max_cycle;Signal;HPM_P1;HPM_P2
2023/01/25 00:01:52;;;;;;;0.60;0.60;;;0.30;99.90;;;;;;5043769;28;20049;-86
2023/01/25 00:04:19;;;;;;;0.73;0.73;;;1.30;99.90;;;;;;5043033;28;20487;-84
2023/01/25 00:06:45;;;;;;;0.63;0.63;;;0.20;99.90;;;;;;5044382;28;20052;-86
2023/01/25 00:09:11;;;;;;;0.77;0.77;;;1.40;99.90;;;;;;5030994;28;20114;-85
2023/01/25 00:11:36;;;;;;;0.85;0.85;;;0.20;99.90;;;;;;5042116;28;20041;-83
2023/01/25 00:14:03;;;;;;;0.80;0.80;;;0.20;99.90;;;;;;5027576;28;20041;-85
2023/01/25 00:16:29;;;;;;;0.60;0.60;;;0.20;99.90;;;;;;5023121;28;20045;-84
2023/01/25 00:18:55;;;;;;;1.10;1.10;;;0.20;99.90;;;;;;5045120;28;20129;-85
2023/01/25 00:21:23;;;;;;;0.60;0.60;;;0.30;99.90;;;;;;5042754;28;20037;-83
2023/01/25 00:23:49;;;;;;;2.40;2.30;;;0.20;99.90;;;;;;5053246;28;20052;-82
2023/01/25 00:26:15;;;;;;;1.75;1.65;;;0.20;99.90;;;;;;5037263;28;20036;-84
2023/01/25 00:28:41;;;;;;;0.75;0.75;;;0.20;99.90;;;;;;5044237;28;20099;-86
2023/01/25 00:31:12;;;;;;;1.40;1.08;;;0.20;99.90;;;;;;5013404;28;20049;-85
2023/01/25 00:33:54;;;;;;;1.02;1.02;;;0.40;99.90;;;;;;5024458;28;20048;-84
2023/01/25 00:36:27;;;;;;;0.55;0.55;;;0.20;99.90;;;;;;5022886;28;20048;-84
2023/01/25 00:38:54;;;;;;;2.55;2.35;;;0.20;99.90;;;;;;5043567;28;20049;-84
2023/01/25 00:41:19;;;;;;;;;;;1.30;99.90;;;;;;5046450;28;20487;-85
2023/01/25 00:43:45;;;;;;;0.93;0.90;;;0.20;99.90;;;;;;5044039;28;19927;-86
2023/01/25 00:46:14;;;;;;;0.75;0.75;;;0.10;99.90;;;;;;5043193;28;20047;-84
2023/01/25 00:48:40;;;;;;;1.00;1.00;;;1.80;99.90;;;;;;5044453;28;20491;-85
2023/01/25 00:51:06;;;;;;;1.17;1.13;;;0.00;99.90;;;;;;5023172;28;20049;-86
2023/01/25 00:53:32;;;;;;;1.63;1.52;;;0.00;99.90;;;;;;5019363;28;20045;-86
2023/01/25 00:55:57;;;;;;;1.00;1.00;;;0.00;99.90;;;;;;5046334;28;20037;-84
2023/01/25 00:58:23;;;;;;;0.93;0.93;;;0.00;99.90;;;;;;5047977;28;20056;-83
2023/01/25 01:00:50;;;;;;;1.60;1.50;;;-0.10;99.90;;;;;;5024435;28;20115;-84
2023/01/25 01:03:16;;;;;;;0.75;0.75;;;-0.10;99.90;;;;;;5027929;28;20614;-83
2023/01/25 01:05:42;;;;;;;0.75;0.75;;;-0.10;99.90;;;;;;5042382;28;20124;-85
2023/01/25 01:08:07;;;;;;;0.70;0.70;;;-0.10;99.90;;;;;;5024212;28;20048;-85
2023/01/25 01:10:33;;;;;;;1.02;1.02;;;-0.10;99.90;;;;;;5042400;28;20037;-84
2023/01/25 01:12:59;;;;;;;0.80;0.80;;;-0.20;99.90;;;;;;5047891;28;20045;-83
2023/01/25 01:15:24;;;;;;;3.95;3.17;;;-0.20;99.90;;;;;;5043766;28;20042;-85
2023/01/25 01:17:50;;;;;;;1.60;1.50;;;-0.20;99.90;;;;;;5024752;28;20036;-83
2023/01/25 01:20:16;;;;;;;0.73;0.73;;;-0.20;99.90;;;;;;5038669;28;20395;-83
2023/01/25 01:22:41;;;;;;;0.80;0.80;;;0.60;99.90;;;;;;5027999;28;20458;-84
2023/01/25 01:25:07;;;;;;;0.70;0.70;;;-0.30;99.90;;;;;;5031431;28;20033;-82
2023/01/25 01:27:33;;;;;;;0.70;0.70;;;-0.30;99.90;;;;;;5010621;28;20044;-85
2023/01/25 01:29:59;;;;;;;0.70;0.70;;;-0.30;99.90;;;;;;5023983;28;20094;-84
2023/01/25 01:32:25;;;;;;;1.98;1.88;;;-0.20;99.90;;;;;;5044325;28;20096;-83
2023/01/25 01:34:50;;;;;;;0.57;0.57;;;-0.20;99.90;;;;;;4992729;28;20048;-82
2023/01/25 01:37:16;;;;;;;0.68;0.68;;;-0.20;99.90;;;;;;5045345;28;20062;-83
2023/01/25 01:39:42;;;;;;;0.70;0.70;;;-0.20;99.90;;;;;;5029449;28;20842;-84
2023/01/25 01:42:07;;;;;;;0.68;0.68;;;-0.20;99.90;;;;;;5030184;28;20067;-84
2023/01/25 01:44:48;;;;;;;0.90;0.90;;;-0.20;99.90;;;;;;5042632;28;20049;-84
2023/01/25 01:47:29;;;;;;;0.70;0.70;;;-0.20;99.90;;;;;;5034993;28;20045;-84
2023/01/25 01:50:03;;;;;;;0.60;0.60;;;-0.20;99.90;;;;;;5035695;28;20037;-84
2023/01/25 01:52:34;;;;;;;0.77;0.77;;;-0.20;99.90;;;;;;5045813;28;20040;-83
2023/01/25 01:55:14;;;;;;;1.17;1.17;;;-0.10;99.90;;;;;;5021203;28;20037;-84
2023/01/25 01:57:41;;;;;;;0.70;0.70;;;-0.20;99.90;;;;;;5044467;28;20032;-86
2023/01/25 02:00:27;;;;;;;0.75;0.75;;;-0.20;99.90;;;;;;5023672;28;20366;-85
2023/01/25 02:02:54;;;;;;;0.60;0.60;;;-0.20;99.90;;;;;;5039283;28;20045;-85
2023/01/25 02:05:44;;;;;;;0.60;0.60;;;-0.20;99.90;;;;;;5042611;28;20041;-85
2023/01/25 02:08:13;;;;;;;0.50;0.50;;;-0.20;99.90;;;;;;5038567;28;20446;-83
2023/01/25 02:10:41;;;;;;;0.80;0.80;;;-0.20;99.90;;;;;;5043320;28;20039;-86
2023/01/25 02:13:06;;;;;;;0.60;0.60;;;-0.20;99.90;;;;;;5029512;28;20033;-87
2023/01/25 02:15:45;;;;;;;0.70;0.70;;;-0.20;99.90;;;;;;5042420;28;20480;-84
2023/01/25 02:18:11;;;;;;;0.70;0.70;;;0.30;99.90;;;;;;5044198;28;20037;-83
2023/01/25 02:20:38;;;;;;;;;;;-0.20;99.90;;;;;;5047941;28;20509;-84
2023/01/25 02:23:28;;;;;;;0.70;0.70;;;-0.20;99.90;;;;;;5061214;28;19925;-84
2023/01/25 02:26:01;;;;;;;0.73;0.73;;;-0.20;99.90;;;;;;5042376;28;20116;-85
2023/01/25 02:28:33;;;;;;;0.50;0.50;;;-0.20;99.90;;;;;;5039161;28;20041;-86
2023/01/25 02:30:58;;;;;;;0.98;0.98;;;-0.30;99.90;;;;;;5045744;28;20063;-85
2023/01/25 02:33:26;;;;;;;0.63;0.63;;;-0.20;99.90;;;;;;5041386;28;20420;-85
2023/01/25 02:36:06;;;;;;;1.10;1.10;;;-0.30;99.90;;;;;;5023465;28;20036;-85
2023/01/25 02:38:36;;;;;;;0.88;0.88;;;-0.30;99.90;;;;;;5049611;28;20128;-82
2023/01/25 02:41:23;;;;;;;1.48;1.42;;;-0.40;99.90;;;;;;5043396;28;20482;-84
2023/01/25 02:43:49;;;;;;;0.60;0.60;;;-0.40;99.90;;;;;;5035100;28;20453;-84
2023/01/25 02:46:22;;;;;;;1.02;1.02;;;-0.40;99.90;;;;;;5023602;28;20045;-83
2023/01/25 02:48:48;;;;;;;0.68;0.68;;;-0.40;99.90;;;;;;5028083;28;20052;-85
2023/01/25 02:51:13;;;;;;;0.60;0.60;;;-0.40;99.90;;;;;;5027551;28;20492;-85
2023/01/25 02:53:40;;;;;;;1.05;1.05;;;-0.40;99.90;;;;;;5028736;28;20063;-83
2023/01/25 02:56:06;;;;;;;2.38;2.28;;;-0.30;99.90;;;;;;5040268;28;20067;-84
2023/01/25 02:58:32;;;;;;;2.85;2.15;;;-0.40;99.90;;;;;;5046924;28;20149;-85
2023/01/25 03:00:58;;;;;;;1.55;1.45;;;-0.40;99.90;;;;;;5039072;28;20159;-84
2023/01/25 03:03:24;;;;;;;1.75;1.20;;;-0.50;99.90;;;;;;5027784;28;20041;-83
2023/01/25 03:05:49;;;;;;;2.88;1.10;;;-0.50;99.90;;;;;;5018704;28;20040;-85
2023/01/25 03:08:15;;;;;;;1.42;1.33;;;-0.50;99.90;;;;;;5028299;28;20083;-86
2023/01/25 03:10:40;;;;;;;2.88;1.63;;;-0.50;99.90;;;;;;5039017;28;20041;-85
2023/01/25 03:13:06;;;;;;;0.70;0.70;;;-0.50;99.90;;;;;;5026162;28;20064;-84
2023/01/25 03:15:32;;;;;;;0.98;0.82;;;-0.50;99.90;;;;;;5045219;28;20697;-84
2023/01/25 03:17:57;;;;;;;0.77;0.77;;;-0.50;99.90;;;;;;5026993;28;20109;-84
2023/01/25 03:20:23;;;;;;;0.70;0.70;;;-0.50;99.90;;;;;;5044861;28;20044;-84
2023/01/25 03:22:49;;;;;;;2.97;2.00;;;-0.50;99.90;;;;;;5040194;28;20045;-85
2023/01/25 03:25:15;;;;;;;4.07;1.55;;;-0.30;99.90;;;;;;5024271;28;20073;-85
2023/01/25 03:27:40;;;;;;;1.48;1.48;;;-0.50;99.90;;;;;;5041659;28;20124;-85
2023/01/25 03:30:07;;;;;;;0.80;0.80;;;-0.50;99.90;;;;;;5050242;28;20041;-84
2023/01/25 03:32:32;;;;;;;0.98;0.98;;;-0.50;99.90;;;;;;5013682;28;20460;-84
2023/01/25 03:34:58;;;;;;;0.75;0.75;;;-0.50;99.90;;;;;;5036814;28;20143;-86
2023/01/25 03:37:28;;;;;;;2.67;2.47;;;-0.50;99.90;;;;;;5010355;28;20116;-85
2023/01/25 03:39:55;;;;;;;0.80;0.80;;;-0.60;99.90;;;;;;5029511;28;20463;-84
2023/01/25 03:42:21;;;;;;;1.85;1.70;;;-0.50;99.90;;;;;;5049392;28;20048;-83
2023/01/25 03:44:47;;;;;;;0.65;0.65;;;-0.50;99.90;;;;;;5045871;28;20545;-84
2023/01/25 03:47:13;;;;;;;0.80;0.80;;;-0.60;99.90;;;;;;5049899;28;20049;-84
2023/01/25 03:49:39;;;;;;;;;;;-0.60;99.90;;;;;;5048098;28;20045;-84
2023/01/25 03:52:05;;;;;;;0.90;0.90;;;-0.60;99.90;;;;;;5047708;28;20309;-85
2023/01/25 03:54:31;;;;;;;1.10;1.10;;;-0.60;99.90;;;;;;5030396;28;20394;-86
2023/01/25 03:56:56;;;;;;;2.58;2.45;;;-0.40;99.90;;;;;;5046036;28;20133;-87
2023/01/25 03:59:23;;;;;;;0.90;0.90;;;-0.30;99.90;;;;;;5014459;28;20152;-85
2023/01/25 04:01:49;;;;;;;5.28;2.70;;;-0.60;99.90;;;;;;5041904;28;20458;-84
2023/01/25 04:04:14;;;;;;;1.20;1.20;;;-0.60;99.90;;;;;;5043668;28;20041;-84
2023/01/25 04:06:43;;;;;;;3.70;2.25;;;0.40;99.90;;;;;;5044595;28;20072;-83
2023/01/25 04:09:09;;;;;;;2.00;1.85;;;-0.70;99.90;;;;;;5009696;28;20033;-84
2023/01/25 04:11:34;;;;;;;2.15;1.75;;;-0.60;99.90;;;;;;5042855;28;20617;-84
2023/01/25 04:14:00;;;;;;;0.80;0.80;;;-0.60;99.90;;;;;;5047733;28;20045;-83
2023/01/25 04:16:26;;;;;;;1.65;1.55;;;-0.60;99.90;;;;;;5036363;28;20102;-84
2023/01/25 04:18:52;;;;;;;0.68;0.68;;;-0.60;99.90;;;;;;5030523;28;20048;-86
2023/01/25 04:21:18;;;;;;;1.48;1.38;;;-0.70;99.90;;;;;;5039743;28;20033;-84
2023/01/25 04:23:43;;;;;;;0.88;0.88;;;-0.70;99.90;;;;;;5041644;28;20094;-86
2023/01/25 04:26:11;;;;;;;0.73;0.73;;;0.50;99.90;;;;;;5045301;28;20037;-84
2023/01/25 04:28:37;;;;;;;1.92;1.83;;;-0.70;99.90;;;;;;5047226;28;20051;-86
2023/01/25 04:31:04;;;;;;;;;;;-0.70;99.90;;;;;;5047108;28;20098;-85
2023/01/25 04:33:31;;;;;;;0.80;0.80;;;-0.80;99.90;;;;;;5027590;28;19930;-85
2023/01/25 04:35:58;;;;;;;1.30;1.23;;;-0.20;99.90;;;;;;5043767;28;20495;-85
2023/01/25 04:38:24;;;;;;;;;;;-0.80;99.90;;;;;;5015765;28;20048;-84
2023/01/25 04:40:50;;;;;;;1.20;1.20;;;-0.70;99.90;;;;;;5039939;28;19920;-85
2023/01/25 04:43:17;;;;;;;0.60;0.60;;;0.20;99.90;;;;;;5012980;28;20052;-85
2023/01/25 04:45:43;;;;;;;1.33;1.27;;;-0.80;99.90;;;;;;5045466;28;20030;-84
2023/01/25 04:48:11;;;;;;;0.73;0.73;;;-0.80;99.90;;;;;;5044070;28;20669;-83
2023/01/25 04:50:38;;;;;;;2.22;1.27;;;-0.80;99.90;;;;;;5038218;28;20529;-84
2023/01/25 04:53:04;;;;;;;0.70;0.70;;;-0.80;99.90;;;;;;5048728;28;20399;-85
2023/01/25 04:55:30;;;;;;;3.05;2.75;;;0.20;99.90;;;;;;5041838;28;20511;-84
2023/01/25 04:57:56;;;;;;;2.53;2.38;;;0.00;99.90;;;;;;5029097;28;20047;-87
2023/01/25 05:00:22;;;;;;;2.47;1.13;;;-0.80;99.90;;;;;;5046230;28;20055;-85
2023/01/25 05:02:48;;;;;;;2.08;1.90;;;-0.80;99.90;;;;;;5049600;28;20067;-85
2023/01/25 05:05:14;;;;;;;0.80;0.80;;;0.80;99.90;;;;;;5043547;28;20052;-84
2023/01/25 05:07:40;;;;;;;0.70;0.70;;;-0.70;99.90;;;;;;5031581;28;20071;-86
2023/01/25 05:10:07;;;;;;;0.60;0.60;;;-0.70;99.90;;;;;;5045487;28;20081;-86
2023/01/25 05:12:33;;;;;;;0.75;0.75;;;-0.70;99.90;;;;;;5039090;28;20072;-83
2023/01/25 05:14:58;;;;;;;1.55;1.10;;;-0.70;99.90;;;;;;5039014;28;20487;-86
2023/01/25 05:17:24;;;;;;;1.23;1.23;;;0.40;99.90;;;;;;5025444;28;20059;-85
2023/01/25 05:19:50;;;;;;;0.82;0.82;;;-0.30;99.90;;;;;;5030315;28;20138;-85
2023/01/25 05:22:19;;;;;;;0.70;0.70;;;-0.60;99.90;;;;;;5035711;28;20690;-85
2023/01/25 05:24:45;;;;;;;1.02;1.02;;;-0.40;99.90;;;;;;5043639;28;20114;-84
2023/01/25 05:27:14;;;;;;;0.90;0.90;;;0.10;99.90;;;;;;5031234;28;20045;-85
2023/01/25 05:29:42;;;;;;;1.85;1.75;;;-0.70;99.90;;;;;;5029213;28;20126;-84
2023/01/25 05:32:21;;;;;;;1.80;1.70;;;-0.70;99.90;;;;;;5026885;28;20049;-85
2023/01/25 05:34:48;;;;;;;2.85;1.73;;;0.90;99.90;;;;;;5048491;28;20553;-84
2023/01/25 05:37:15;;;;;;;;;;;-0.80;99.90;;;;;;5031037;28;20072;-84
2023/01/25 05:39:41;;;;;;;0.90;0.90;;;-0.80;99.90;;;;;;5045768;28;19924;-83
2023/01/25 05:42:11;;;;;;;0.90;0.90;;;-0.80;99.90;;;;;;5045832;28;20468;-85
2023/01/25 05:44:37;;;;;;;2.33;2.22;;;-0.80;99.90;;;;;;5019996;28;20033;-85
2023/01/25 05:47:03;;;;;;;2.67;2.47;;;-0.20;99.90;;;;;;5041933;28;20825;-88
2023/01/25 05:49:29;;;;;;;0.82;0.82;;;-0.80;99.90;;;;;;5048376;28;20104;-87
2023/01/25 05:51:55;;;;;;;0.80;0.80;;;-0.80;99.90;;;;;;5008359;28;20076;-86
2023/01/25 05:54:20;;;;;;;2.42;2.33;;;-0.80;99.90;;;;;;5047286;28;20091;-85
2023/01/25 05:56:49;;;;;;;1.08;1.08;;;-0.80;99.90;;;;;;5050125;28;20037;-84
2023/01/25 05:59:16;;;;;;;1.67;1.58;;;-0.80;99.90;;;;;;5040991;28;20406;-86
2023/01/25 06:01:42;;;;;;;3.50;3.22;;;-0.80;99.90;;;;;;5038696;28;20048;-85
2023/01/25 06:04:08;;;;;;;;;;;0.10;99.90;;;;;;5041381;28;20732;-85
2023/01/25 06:06:34;;;;;;;1.85;1.70;;;-0.80;99.90;;;;;;5029300;28;19974;-85
2023/01/25 06:09:01;;;;;;;8.75;6.75;;;-0.80;99.90;;;;;;5041250;28;20041;-85
2023/01/25 06:11:26;;;;;;;0.90;0.90;;;0.20;99.90;;;;;;5031721;28;20064;-83
2023/01/25 06:13:52;;;;;;;1.23;1.13;;;-0.50;99.90;;;;;;5016569;28;20072;-84
2023/01/25 06:16:19;;;;;;;1.10;1.10;;;-0.90;99.90;;;;;;5044195;28;20086;-84
2023/01/25 06:18:45;;;;;;;2.47;1.42;;;-0.60;99.90;;;;;;5040349;28;20084;-86
2023/01/25 06:21:11;;;;;;;;;;;-0.90;99.90;;;;;;5039356;28;20044;-85
2023/01/25 06:23:36;;;;;;;2.25;2.13;;;-0.90;99.90;;;;;;5030640;28;19933;-83
2023/01/25 06:26:09;;;;;;;2.28;1.55;;;-1.00;99.90;;;;;;5022206;28;20135;-85
2023/01/25 06:28:36;;;;;;;1.25;1.25;;;-1.00;99.90;;;;;;5048095;28;20564;-84
2023/01/25 06:31:16;;;;;;;1.95;1.85;;;-0.20;99.90;;;;;;5045860;28;20040;-84
2023/01/25 06:33:46;;;;;;;2.97;2.58;;;-1.00;99.90;;;;;;5058836;28;20125;-84
2023/01/25 06:36:13;;;;;;;1.42;1.33;;;-1.00;99.90;;;;;;5049793;28;20063;-83
2023/01/25 06:38:40;;;;;;;5.25;4.78;;;-0.90;99.90;;;;;;5039464;28;20081;-84
2023/01/25 06:41:09;;;;;;;6.82;2.65;;;-0.80;99.90;;;;;;5046249;28;20041;-84
2023/01/25 06:43:35;;;;;;;1.10;1.10;;;-1.00;99.90;;;;;;5040204;28;20055;-86
2023/01/25 06:46:02;;;;;;;;;;;-1.00;99.90;;;;;;5042048;28;20395;-83
2023/01/25 06:48:29;;;;;;;1.00;1.00;;;-0.90;99.90;;;;;;5040563;28;19928;-86
2023/01/25 06:50:57;;;;;;;0.73;0.73;;;-1.00;99.90;;;;;;5040330;28;20479;-83
2023/01/25 06:53:25;;;;;;;0.90;0.90;;;-1.00;99.90;;;;;;5043162;28;20044;-87
2023/01/25 06:56:06;;;;;;;1.42;1.20;;;-0.90;99.90;;;;;;5046741;28;20491;-86
2023/01/25 06:58:32;;;;;;;0.63;0.63;;;-1.00;99.90;;;;;;5020529;28;20058;-84
2023/01/25 07:01:07;;;;;;;0.90;0.90;;;-1.00;99.90;;;;;;5040951;28;20052;-83
2023/01/25 07:03:33;;;;;;;1.17;1.17;;;-1.00;99.90;;;;;;5048926;28;20041;-86
2023/01/25 07:06:05;;;;;;;0.98;0.98;;;-1.00;99.90;;;;;;5051220;28;20402;-84
2023/01/25 07:08:32;;;;;;;2.38;2.20;;;-1.00;99.90;;;;;;5052878;28;20049;-84
2023/01/25 07:11:05;;;;;;;0.95;0.95;;;-1.10;99.90;;;;;;5050057;28;20045;-84
2023/01/25 07:13:32;;;;;;;0.80;0.80;;;-1.10;99.90;;;;;;5050004;28;20079;-84
2023/01/25 07:16:04;;;;;;;3.20;2.97;;;0.80;99.90;;;;;;5050842;28;20047;-86
2023/01/25 07:18:30;;;;;;;0.95;0.95;;;-1.10;99.90;;;;;;5052724;28;20426;-84
2023/01/25 07:21:08;;;;;;;1.70;1.60;;;-1.10;99.90;;;;;;5045991;28;20053;-84
2023/01/25 07:23:36;;;;;;;4.22;1.75;;;-1.10;99.90;;;;;;5052797;28;20543;-86
2023/01/25 07:26:03;;;;;;;0.90;0.90;;;-0.10;99.90;;;;;;5056499;28;20052;-84
2023/01/25 07:28:31;;;;;;;1.90;1.80;;;-1.00;99.90;;;;;;5044173;28;20033;-86
2023/01/25 07:31:04;;;;;;;2.70;2.58;;;-0.50;99.90;;;;;;5031739;28;20053;-82
2023/01/25 07:33:30;;;;;;;0.90;0.90;;;-1.00;99.90;;;;;;5048856;28;20102;-82
2023/01/25 07:36:01;;;;;;;0.95;0.95;;;-1.00;99.90;;;;;;5047856;28;20098;-80
2023/01/25 07:38:27;;;;;;;4.30;3.83;;;-1.00;99.90;;;;;;5050560;28;20048;-80
2023/01/25 07:40:53;;;;;;;1.30;1.27;;;-1.00;99.90;;;;;;5032467;28;20044;-83
2023/01/25 07:43:19;;;;;;;1.33;1.33;;;0.10;99.90;;;;;;5049545;28;20120;-83
2023/01/25 07:45:47;;;;;;;1.13;1.13;;;-1.00;99.90;;;;;;5043869;28;20458;-79
2023/01/25 07:48:15;;;;;;;0.80;0.80;;;-1.00;99.90;;;;;;5041492;28;20343;-82
2023/01/25 07:50:40;;;;;;;2.70;2.55;;;-1.10;99.90;;;;;;5054886;28;20045;-83
2023/01/25 07:53:07;;;;;;;5.05;2.28;;;-0.30;99.90;;;;;;5022732;28;20056;-83
2023/01/25 07:55:33;;;;;;;0.80;0.80;;;-0.80;99.90;;;;;;5048257;28;20505;-83
2023/01/25 07:58:00;;;;;;;1.38;1.38;;;-1.00;99.90;;;;;;5044363;28;20041;-82
2023/01/25 08:00:26;;;;;;;0.73;0.73;;;-1.00;99.90;;;;;;5034290;28;20041;-80
2023/01/25 08:02:52;;;;;;;0.70;0.70;;;-1.10;99.90;;;;;;5050697;28;20428;-80
2023/01/25 08:05:18;;;;;;;0.63;0.63;;;-1.20;99.90;;;;;;5028525;28;20059;-81
2023/01/25 08:07:44;;;;;;;;;;;-1.20;99.90;;;;;;5044100;28;20053;-81
2023/01/25 08:10:10;;;;;;;1.02;1.02;;;-1.20;99.90;;;;;;5050479;28;19932;-83
2023/01/25 08:12:36;;;;;;;;;;;-1.20;99.90;;;;;;5031044;28;20160;-84
2023/01/25 08:15:03;;;;;;;1.63;1.53;;;-1.20;99.90;;;;;;5050752;28;19987;-85
2023/01/25 08:17:32;;;;;;;3.42;2.20;;;-1.20;99.90;;;;;;5048086;28;20041;-86
2023/01/25 08:20:00;;;;;;;0.90;0.90;;;-1.20;99.90;;;;;;5030037;28;20049;-85
2023/01/25 08:22:27;;;;;;;0.80;0.80;;;-1.30;99.90;;;;;;5027155;28;20041;-81
2023/01/25 08:24:53;;;;;;;1.23;1.23;;;-1.30;99.90;;;;;;5044902;28;20063;-80
2023/01/25 08:27:19;;;;;;;;;;;-1.30;99.90;;;;;;5048648;28;20510;-83
2023/01/25 08:29:45;;;;;;;0.80;0.80;;;-1.30;99.90;;;;;;5031771;28;19925;-82
2023/01/25 08:32:11;;;;;;;0.90;0.90;;;-1.30;99.90;;;;;;5039128;28;20419;-79
2023/01/25 08:34:38;;;;;;;1.50;1.40;;;-1.20;99.90;;;;;;5050467;28;20044;-81
2023/01/25 08:37:04;;;;;;;1.50;1.40;;;-1.20;99.90;;;;;;5040661;28;20041;-80
2023/01/25 08:39:30;;;;;;;1.75;1.65;;;-1.20;99.90;;;;;;5049043;28;20525;-84
2023/01/25 08:41:55;;;;;;;0.60;0.60;;;-1.20;99.90;;;;;;5050323;28;20044;-81
2023/01/25 08:44:22;;;;;;;0.52;0.52;;;-1.20;99.90;;;;;;5046607;28;20095;-81
2023/01/25 08:46:49;;;;;;;2.65;2.45;;;-1.20;99.90;;;;;;5050478;28;20051;-83
2023/01/25 08:49:15;;;;;;;1.70;1.60;;;-1.20;99.90;;;;;;5050048;28;20102;-82
2023/01/25 08:51:41;;;;;;;2.47;2.38;;;-1.30;99.90;;;;;;5044113;28;20049;-82
2023/01/25 08:54:07;;;;;;;;;;;-1.20;99.90;;;;;;5050004;28;20041;-81
2023/01/25 08:56:36;;;;;;;0.73;0.73;;;-1.30;99.90;;;;;;5050309;28;19917;-83
2023/01/25 08:59:01;;;;;;;3.70;2.42;;;-1.20;99.90;;;;;;5050279;28;20517;-83
2023/01/25 09:01:27;;;;;;;2.13;2.03;;;-1.20;99.90;;;;;;5051173;28;20045;-80
2023/01/25 09:03:53;;;;;;;2.53;2.42;;;-1.10;99.90;;;;;;5048483;28;20155;-81
2023/01/25 09:06:19;;;;;;;1.00;0.90;;;-1.20;99.90;;;;;;5046644;28;20041;-82
2023/01/25 09:08:45;;;;;;;11.00;2.97;;;-1.10;99.90;;;;;;5050265;28;20411;-83
2023/01/25 09:11:20;;;;;;;1.40;1.38;;;-1.10;99.90;;;;;;5049882;28;20120;-80
2023/01/25 09:13:47;;;;;;;1.42;1.33;;;-1.10;99.90;;;;;;5049798;28;20124;-81
2023/01/25 09:16:21;;;;;;;1.13;1.13;;;-1.10;99.90;;;;;;5049931;28;20081;-81
2023/01/25 09:18:47;;;;;;;0.60;0.60;;;-1.10;99.90;;;;;;5040173;28;20491;-83
2023/01/25 09:21:17;;;;;;;1.13;1.13;;;-0.60;99.90;;;;;;5047809;28;20129;-83
2023/01/25 09:23:44;;;;;;;1.92;1.83;;;-1.10;99.90;;;;;;5044755;28;20457;-82
2023/01/25 09:26:10;;;;;;;0.80;0.80;;;-1.10;99.90;;;;;;5046476;28;20125;-81
2023/01/25 09:28:36;;;;;;;0.80;0.80;;;-1.10;99.90;;;;;;5042579;28;20037;-82
2023/01/25 09:31:03;;;;;;;;;;;-1.10;99.90;;;;;;5035500;28;20140;-79
2023/01/25 09:33:36;;;;;;;6.93;3.22;;;-1.10;99.90;;;;;;5045388;28;19928;-82
2023/01/25 09:36:02;;;;;;;0.60;0.60;;;-1.10;99.90;;;;;;5029579;28;20033;-81
2023/01/25 09:38:28;;;;;;;0.82;0.82;;;-1.20;99.90;;;;;;5047251;28;20124;-84
2023/01/25 09:41:03;;;;;;;;;;;-1.00;99.90;;;;;;5048248;28;20124;-83
2023/01/25 09:43:47;;;;;;;0.80;0.80;;;-1.20;99.90;;;;;;5048463;28;20329;-84
2023/01/25 09:46:20;;;;;;;2.30;2.17;;;-1.20;99.90;;;;;;5049102;28;20499;-81
2023/01/25 09:48:59;;;;;;;1.25;1.25;;;-1.20;99.90;;;;;;5048773;28;20041;-83
2023/01/25 09:52:09;;;;;;;0.90;0.90;;;-1.20;99.90;;;;;;5048700;28;20052;-83
2023/01/25 09:54:44;;;;;;;0.75;0.75;;;-1.20;99.90;;;;;;5041562;28;20041;-82
2023/01/25 09:57:23;;;;;;;1.25;1.25;;;-1.20;99.90;;;;;;5041915;28;20356;-80
2023/01/25 09:59:50;;;;;;;1.40;1.40;;;-1.20;99.90;;;;;;5030544;28;20054;-84
2023/01/25 10:02:16;;;;;;;1.00;1.00;;;-1.10;99.90;;;;;;5045659;28;20044;-80
2023/01/25 10:04:44;;;;;;;1.00;1.00;;;-1.10;99.90;;;;;;5044816;28;20425;-83
2023/01/25 10:07:33;;;;;;;3.75;3.10;;;-1.10;99.90;;;;;;5045138;28;20482;-82
2023/01/25 10:10:15;;;;;;;2.72;1.85;;;-1.00;99.90;;;;;;5041344;28;20170;-86
2023/01/25 10:12:40;;;;;;;1.73;0.95;;;-1.00;99.90;;;;;;5046111;28;20085;-79
2023/01/25 10:15:31;;;;;;;0.90;0.90;;;-0.80;99.90;;;;;;5010615;28;20119;-82
2023/01/25 10:18:15;;;;;;;1.13;1.13;;;-0.90;99.90;;;;;;5047907;28;20037;-84
2023/01/25 10:21:13;;;;;;;4.05;2.22;;;-0.90;99.90;;;;;;5027026;28;20091;-83
2023/01/25 10:24:00;;;;;;;1.10;1.10;;;-0.90;99.90;;;;;;5020812;28;20805;-81
2023/01/25 10:26:31;;;;;;;2.80;2.60;;;-0.90;99.90;;;;;;5042967;28;20087;-82
2023/01/25 10:29:15;;;;;;;8.10;2.72;;;-0.80;99.90;;;;;;5043575;28;20055;-83
2023/01/25 10:31:52;;;;;;;1.60;1.40;;;-0.80;99.90;;;;;;5047655;28;20053;-85
2023/01/25 10:34:20;;;;;;;1.38;1.27;;;-0.80;99.90;;;;;;5025928;28;20055;-82
2023/01/25 10:37:12;;;;;;;0.77;0.77;;;-0.80;99.90;;;;;;5042468;28;20419;-81
2023/01/25 10:39:48;;;;;;;1.10;1.10;;;-0.70;99.90;;;;;;5037505;28;20063;-83
2023/01/25 10:42:15;;;;;;;0.80;0.80;;;-0.70;99.90;;;;;;5044382;28;20072;-82
2023/01/25 10:44:41;;;;;;;3.40;3.20;;;-0.60;99.90;;;;;;5027761;28;20049;-84
2023/01/25 10:47:22;;;;;;;2.25;1.75;;;-0.50;99.90;;;;;;5046183;28;20051;-82
2023/01/25 10:49:55;;;;;;;1.02;1.02;;;0.00;99.90;;;;;;5037270;28;20051;-82
2023/01/25 10:52:31;;;;;;;0.98;0.98;;;-0.30;99.90;;;;;;5033400;28;20045;-83
2023/01/25 10:55:15;;;;;;;1.55;1.45;;;-0.20;99.90;;;;;;5044857;28;20118;-81
2023/01/25 10:57:48;;;;;;;0.88;0.88;;;-0.10;99.90;;;;;;5031879;28;20041;-84
2023/01/25 11:00:36;;;;;;;1.85;1.77;;;-0.10;99.90;;;;;;5039893;28;20766;-83
2023/01/25 11:03:03;;;;;;;1.27;1.27;;;-0.10;99.90;;;;;;5031191;28;20044;-83
2023/01/25 11:05:29;;;;;;;1.88;1.77;;;0.00;99.90;;;;;;5013183;28;20045;-85
2023/01/25 11:07:55;;;;;;;0.60;0.60;;;0.00;99.90;;;;;;5027432;28;20048;-81
2023/01/25 11:10:27;;;;;;;0.70;0.70;;;0.00;99.90;;;;;;5027778;28;20408;-82
2023/01/25 11:13:12;;;;;;;1.63;1.52;;;0.00;99.90;;;;;;5047243;28;20061;-82
2023/01/25 11:15:38;;;;;;;1.23;1.23;;;0.10;99.90;;;;;;5043381;28;20063;-83
2023/01/25 11:18:11;;;;;;;;;;;0.10;99.90;;;;;;5043254;28;20059;-81
2023/01/25 11:20:37;;;;;;;0.70;0.70;;;0.10;99.90;;;;;;5042036;28;20256;-84
2023/01/25 11:23:03;;;;;;;2.58;1.85;;;0.10;99.90;;;;;;5045768;28;20115;-85
2023/01/25 11:25:33;;;;;;;1.98;1.13;;;0.10;99.90;;;;;;5011649;28;20787;-82
2023/01/25 11:28:11;;;;;;;11.32;1.50;;;0.20;99.90;;;;;;5043458;28;20787;-82
2023/01/25 11:30:37;;;;;;;1.58;1.50;;;0.20;99.90;;;;;;5029409;28;20483;-81
2023/01/25 11:33:10;;;;;;;1.25;1.23;;;0.30;99.90;;;;;;5034040;28;20091;-83
2023/01/25 11:35:39;;;;;;;3.13;1.42;;;0.20;99.90;;;;;;5042394;28;20099;-83
2023/01/25 11:38:24;;;;;;;3.50;2.08;;;0.20;99.90;;;;;;5043998;28;20095;-81
2023/01/25 11:41:11;;;;;;;1.10;1.10;;;0.20;99.90;;;;;;5045476;28;20067;-81
2023/01/25 11:43:37;;;;;;;2.63;0.98;;;0.20;99.90;;;;;;5047787;28;20083;-84
2023/01/25 11:46:20;;;;;;;0.90;0.90;;;0.20;99.90;;;;;;5041053;28;20760;-82
2023/01/25 11:48:58;;;;;;;6.15;1.48;;;0.40;99.90;;;;;;5047201;28;20442;-81
2023/01/25 11:51:58;;;;;;;0.70;0.70;;;0.30;99.90;;;;;;5041601;28;20048;-81
2023/01/25 11:54:56;;;;;;;0.80;0.80;;;1.30;99.90;;;;;;5039016;28;20055;-81
2023/01/25 11:57:31;;;;;;;0.60;0.60;;;0.30;99.90;;;;;;5044061;28;20487;-81
2023/01/25 12:00:27;;;;;;;1.98;1.88;;;0.30;99.90;;;;;;5041818;28;20044;-82
2023/01/25 12:03:14;;;;;;;0.93;0.93;;;0.30;99.90;;;;;;5037367;28;20052;-82
2023/01/25 12:05:55;;;;;;;2.65;2.45;;;0.40;99.90;;;;;;5050455;28;20073;-82
2023/01/25 12:08:39;;;;;;;0.77;0.77;;;0.30;99.90;;;;;;5033090;28;20570;-84
2023/01/25 12:11:11;;;;;;;0.70;0.70;;;0.40;99.90;;;;;;5043656;28;20434;-84
2023/01/25 12:13:47;;;;;;;10.15;1.95;;;0.40;99.90;;;;;;5049227;28;20040;-84
2023/01/25 12:16:43;;;;;;;1.08;1.08;;;0.40;99.90;;;;;;5053879;28;20102;-80
2023/01/25 12:19:12;;;;;;;0.80;0.80;;;0.40;99.90;;;;;;5045976;28;20048;-80
2023/01/25 12:22:06;;;;;;;2.13;2.03;;;0.50;99.90;;;;;;5030138;28;20056;-83
2023/01/25 12:24:41;;;;;;;0.70;0.70;;;0.50;99.90;;;;;;5047044;28;20040;-81
2023/01/25 12:27:29;;;;;;;0.80;0.80;;;0.50;99.90;;;;;;5040558;28;21728;-81
2023/01/25 12:30:11;;;;;;;0.70;0.70;;;0.50;99.90;;;;;;5039128;28;20046;-82
2023/01/25 12:32:59;;;;;;;0.82;0.82;;;1.30;99.90;;;;;;5030604;28;20061;-83
2023/01/25 12:35:42;;;;;;;1.05;1.05;;;0.60;99.90;;;;;;5047638;28;20049;-82
2023/01/25 12:38:43;;;;;;;0.90;0.90;;;0.60;99.90;;;;;;5060952;28;20036;-81
2023/01/25 12:41:15;;;;;;;0.80;0.80;;;0.60;99.90;;;;;;5030153;28;20061;-83
2023/01/25 12:43:56;;;;;;;1.55;1.17;;;0.60;99.90;;;;;;5034454;28;20102;-84
2023/01/25 12:46:45;;;;;;;0.60;0.60;;;0.60;99.90;;;;;;5048536;28;20036;-85
2023/01/25 12:49:32;;;;;;;0.82;0.82;;;0.60;99.90;;;;;;5044080;28;20084;-85
2023/01/25 12:52:03;;;;;;;0.88;0.88;;;0.60;99.90;;;;;;5048419;28;20124;-84
2023/01/25 12:54:41;;;;;;;1.52;1.42;;;0.60;99.90;;;;;;5057250;28;20379;-84
2023/01/25 12:57:22;;;;;;;0.85;0.85;;;0.60;99.90;;;;;;5044093;28;20158;-84
2023/01/25 12:59:56;;;;;;;4.95;3.75;;;0.60;99.90;;;;;;5029690;28;20060;-85
2023/01/25 13:02:33;;;;;;;0.70;0.70;;;0.60;99.90;;;;;;5045594;28;20451;-85
2023/01/25 13:05:12;;;;;;;0.73;0.73;;;0.60;99.90;;;;;;5041977;28;20049;-84
2023/01/25 13:08:00;;;;;;;4.60;1.10;;;0.60;99.90;;;;;;5048154;28;20066;-85
2023/01/25 13:10:32;;;;;;;0.77;0.77;;;0.60;99.90;;;;;;5050063;28;20044;-85